Terminal Aerodrome Forecast
Issued by NWS

Home | Current Version | Previous Version | Text Only | Print | Product List | Glossary On
Versions: 1 2 3 4 5 6 7 8 9 10 11 12 13 14 15
368
FTUS43 KPAH 142320
TAFCGI
TAF
KCGI 142320Z 1500/1524 19010KT P6SM SKC
     FM151000 23011G20KT P6SM VCTS SCT040CB
     FM151200 31012G22KT P6SM -SHRA BKN035
     FM151800 33014G22KT P6SM BKN150=

USA.gov is the U.S. government's official web portal to all federal, state and local government web resources and services.